Time;durP1;ratioP1;P1;durP2;ratioP2;P2;SDS_P1;SDS_P2;PMS_P1;PMS_P2;Temp;Humidity;BMP_temperature;BMP_pressure;BME280_temperature;BME280_humidity;BME280_pressure;Samples;Min_cycle;Max_cycle;Signal;HPM_P1;HPM_P2
2022/03/28 00:00:42;;;;;;;12.00;7.05;;;16.60;35.00;;;;;;5012729;28;20026;-72
2022/03/28 00:03:08;;;;;;;10.00;6.45;;;16.60;35.30;;;;;;5012516;28;20026;-70
2022/03/28 00:05:34;;;;;;;12.43;7.05;;;16.60;35.40;;;;;;5012445;28;20033;-73
2022/03/28 00:07:59;;;;;;;15.35;7.38;;;16.50;35.30;;;;;;4995171;28;20109;-72
2022/03/28 00:10:25;;;;;;;12.48;7.13;;;16.50;35.80;;;;;;5012423;28;20056;-73
2022/03/28 00:12:51;;;;;;;11.63;7.38;;;16.50;35.90;;;;;;5012365;28;20022;-72
2022/03/28 00:15:17;;;;;;;10.30;7.00;;;16.50;36.00;;;;;;5014296;28;20033;-71
2022/03/28 00:17:44;;;;;;;11.23;6.53;;;16.50;35.70;;;;;;5016064;28;20036;-77
2022/03/28 00:20:11;;;;;;;11.32;6.68;;;16.40;35.30;;;;;;5016236;28;20037;-72
2022/03/28 00:22:41;;;;;;;13.23;6.78;;;16.40;35.90;;;;;;5016249;28;20050;-74
2022/03/28 00:25:09;;;;;;;14.77;6.57;;;16.40;36.20;;;;;;5017616;28;20102;-76
2022/03/28 00:27:35;;;;;;;14.50;6.70;;;16.40;36.30;;;;;;5019356;28;20022;-74
2022/03/28 00:30:01;;;;;;;11.20;6.80;;;16.40;36.20;;;;;;5017017;28;20030;-80
2022/03/28 00:32:26;;;;;;;10.73;7.65;;;16.40;36.50;;;;;;5016962;28;20134;-76
2022/03/28 00:34:53;;;;;;;10.45;6.50;;;16.40;36.40;;;;;;4999074;28;20049;-76
2022/03/28 00:37:20;;;;;;;9.57;6.68;;;16.40;36.70;;;;;;5015967;28;20030;-78
2022/03/28 00:39:46;;;;;;;9.38;6.38;;;16.30;35.90;;;;;;5015913;28;20036;-78
2022/03/28 00:42:13;;;;;;;10.90;6.95;;;16.30;36.60;;;;;;5015844;28;20026;-77
2022/03/28 00:44:38;;;;;;;11.15;6.95;;;16.30;36.70;;;;;;5015581;28;20113;-75
2022/03/28 00:47:05;;;;;;;12.13;6.97;;;16.40;36.60;;;;;;4997819;28;20062;-73
2022/03/28 00:49:31;;;;;;;16.08;7.75;;;16.30;36.80;;;;;;5015472;28;20114;-78
2022/03/28 00:51:57;;;;;;;11.90;7.57;;;16.40;37.10;;;;;;5015338;28;20057;-76
2022/03/28 00:54:24;;;;;;;11.25;6.97;;;16.40;37.10;;;;;;4997874;28;20557;-75
2022/03/28 00:56:50;;;;;;;10.77;6.93;;;16.40;37.10;;;;;;4997898;28;20160;-76
2022/03/28 00:59:17;;;;;;;13.05;7.07;;;16.50;37.50;;;;;;4998114;28;20099;-74
2022/03/28 01:01:45;;;;;;;13.63;7.07;;;16.50;37.30;;;;;;5015324;28;20022;-73
2022/03/28 01:04:11;;;;;;;13.00;7.13;;;16.50;37.20;;;;;;5015300;28;20446;-73
2022/03/28 01:06:37;;;;;;;16.02;7.47;;;16.50;37.30;;;;;;5015294;28;20022;-74
2022/03/28 01:09:05;;;;;;;10.85;7.13;;;16.40;37.70;;;;;;4997663;28;20034;-76
2022/03/28 01:11:35;;;;;;;12.77;6.97;;;16.40;37.80;;;;;;5015410;28;20054;-73
2022/03/28 01:14:01;;;;;;;12.90;6.60;;;16.40;37.40;;;;;;5014843;28;20041;-74
2022/03/28 01:19:18;;;;;;;11.32;7.03;;;16.40;36.70;;;;;;5015377;28;20044;-72
2022/03/28 01:21:45;;;;;;;11.02;6.65;;;16.40;37.50;;;;;;5015120;28;20021;-73
2022/03/28 01:24:11;;;;;;;10.18;6.43;;;16.40;36.80;;;;;;5014890;28;20029;-77
2022/03/28 01:26:37;;;;;;;10.38;6.65;;;16.40;37.60;;;;;;5014366;28;20426;-73
2022/03/28 01:29:03;;;;;;;10.55;7.05;;;16.40;37.60;;;;;;5014956;28;20053;-75
2022/03/28 01:31:31;;;;;;;10.98;7.40;;;16.40;37.50;;;;;;5014621;28;20022;-77
2022/03/28 01:33:56;;;;;;;12.27;7.95;;;16.40;36.90;;;;;;5014704;28;20404;-73
2022/03/28 01:36:28;;;;;;;15.55;8.18;;;16.40;37.90;;;;;;5014807;28;20080;-76
2022/03/28 01:38:54;;;;;;;15.15;8.35;;;16.40;38.00;;;;;;5014612;28;20101;-76
2022/03/28 01:41:20;;;;;;;14.20;8.10;;;16.30;37.60;;;;;;5014586;28;20093;-71
2022/03/28 01:43:45;;;;;;;15.68;8.18;;;16.30;37.80;;;;;;5014489;28;20045;-71
2022/03/28 01:46:11;;;;;;;15.45;8.50;;;16.30;38.10;;;;;;5014423;28;20109;-72
2022/03/28 01:48:37;;;;;;;13.82;8.13;;;16.30;38.30;;;;;;5014638;28;20500;-77
2022/03/28 01:51:03;;;;;;;14.73;8.75;;;16.30;38.20;;;;;;4996377;28;20030;-76
2022/03/28 01:53:30;;;;;;;11.30;7.95;;;16.30;38.20;;;;;;5014373;28;20096;-75
2022/03/28 01:55:55;;;;;;;16.05;8.35;;;16.30;38.30;;;;;;5014401;28;20064;-77
2022/03/28 01:58:23;;;;;;;17.13;8.43;;;16.30;38.50;;;;;;5014440;28;20463;-76
2022/03/28 02:00:48;;;;;;;13.43;8.00;;;16.30;37.50;;;;;;5032331;28;20025;-78
2022/03/28 02:03:14;;;;;;;15.18;8.48;;;16.30;38.50;;;;;;5054195;28;20091;-79
2022/03/28 02:05:41;;;;;;;15.80;8.07;;;16.30;39.10;;;;;;5036146;28;20040;-77
2022/03/28 02:08:08;;;;;;;15.70;7.40;;;16.30;37.90;;;;;;5054071;28;20025;-77
2022/03/28 02:10:33;;;;;;;13.82;7.03;;;16.30;38.40;;;;;;5053944;28;20198;-74
2022/03/28 02:13:01;;;;;;;10.88;6.95;;;16.30;38.70;;;;;;5052701;28;20564;-77
2022/03/28 02:15:27;;;;;;;11.07;6.68;;;16.30;37.80;;;;;;5054036;28;20108;-77
2022/03/28 02:17:52;;;;;;;10.60;6.53;;;16.30;38.60;;;;;;5054442;28;20068;-78
2022/03/28 02:20:19;;;;;;;12.85;5.90;;;16.40;38.90;;;;;;5055557;28;20025;-77
2022/03/28 02:22:47;;;;;;;11.38;6.53;;;16.40;38.00;;;;;;5038345;28;20025;-74
2022/03/28 02:25:15;;;;;;;13.10;6.15;;;16.40;38.80;;;;;;5055621;28;20025;-75
2022/03/28 02:27:43;;;;;;;11.70;5.93;;;16.40;38.80;;;;;;5053961;28;20039;-75
2022/03/28 02:30:10;;;;;;;10.98;6.30;;;16.40;38.90;;;;;;5053942;28;20030;-74
2022/03/28 02:32:36;;;;;;;11.40;6.00;;;16.40;38.80;;;;;;5053962;28;20017;-77
2022/03/28 02:35:04;;;;;;;12.13;6.20;;;16.40;38.80;;;;;;5053988;28;20040;-77
2022/03/28 02:37:30;;;;;;;9.60;6.32;;;16.50;39.10;;;;;;5058929;28;20017;-76
2022/03/28 02:39:56;;;;;;;9.98;5.65;;;16.50;39.30;;;;;;5064268;28;20055;-76
2022/03/28 02:42:40;;;;;;;11.77;6.60;;;16.50;38.90;;;;;;5066134;28;20060;-79
2022/03/28 02:45:06;;;;;;;;;;;16.40;38.40;;;;;;5067694;28;20037;-79
2022/03/28 02:47:33;;;;;;;12.18;5.68;;;16.40;39.10;;;;;;5054963;28;19996;-77
2022/03/28 02:49:59;;;;;;;11.10;5.80;;;16.40;39.10;;;;;;5053228;28;20105;-78
2022/03/28 02:52:26;;;;;;;11.30;5.43;;;16.40;39.10;;;;;;5053102;28;20045;-79
2022/03/28 02:54:52;;;;;;;13.25;5.47;;;16.40;39.50;;;;;;5034980;28;20037;-77
2022/03/28 02:57:18;;;;;;;14.25;5.30;;;16.30;39.30;;;;;;5053035;28;20025;-76
2022/03/28 02:59:45;;;;;;;12.15;5.50;;;16.30;39.30;;;;;;5035328;28;20033;-78
2022/03/28 03:02:12;;;;;;;13.88;5.60;;;16.40;39.30;;;;;;5051811;28;20025;-78
2022/03/28 03:04:38;;;;;;;9.82;5.07;;;16.40;39.40;;;;;;5052900;28;20020;-78
2022/03/28 03:07:04;;;;;;;13.63;5.18;;;16.40;39.20;;;;;;5052998;28;20072;-76
2022/03/28 03:09:29;;;;;;;12.63;5.38;;;16.40;39.00;;;;;;5053225;28;20058;-79
2022/03/28 03:11:55;;;;;;;9.88;6.10;;;16.40;39.40;;;;;;5053175;28;20033;-78
2022/03/28 03:14:23;;;;;;;17.08;5.88;;;16.30;39.40;;;;;;5052871;28;20036;-77
2022/03/28 03:16:50;;;;;;;16.48;5.68;;;16.30;39.30;;;;;;5035287;28;20033;-79
2022/03/28 03:19:16;;;;;;;13.05;5.30;;;16.30;39.50;;;;;;5052728;28;20487;-77
2022/03/28 03:21:43;;;;;;;15.13;5.88;;;16.30;39.70;;;;;;5052799;28;20029;-75
2022/03/28 03:24:10;;;;;;;16.80;5.57;;;16.30;38.70;;;;;;5052943;28;20024;-79
2022/03/28 03:26:36;;;;;;;11.73;5.82;;;16.20;39.10;;;;;;5053078;28;20461;-78
2022/03/28 03:29:01;;;;;;;9.07;5.55;;;16.20;39.80;;;;;;5052756;28;20071;-72
2022/03/28 03:31:27;;;;;;;12.85;5.82;;;16.20;40.00;;;;;;5052667;28;20461;-74
2022/03/28 03:33:53;;;;;;;15.38;6.03;;;16.20;39.90;;;;;;5052434;28;20527;-73
2022/03/28 03:36:19;;;;;;;15.32;5.80;;;16.20;39.90;;;;;;5052573;28;20025;-74
2022/03/28 03:38:45;;;;;;;13.57;5.88;;;16.20;40.00;;;;;;5034574;28;20465;-72
2022/03/28 03:41:11;;;;;;;12.15;5.70;;;16.10;40.50;;;;;;5052462;28;20025;-70
2022/03/28 03:43:37;;;;;;;11.65;6.00;;;16.10;40.30;;;;;;5052363;28;20028;-70
2022/03/28 03:46:02;;;;;;;14.40;6.05;;;16.00;40.30;;;;;;5052178;28;20087;-72
2022/03/28 03:48:29;;;;;;;13.02;6.13;;;16.00;40.40;;;;;;5035661;28;20175;-70
2022/03/28 03:50:55;;;;;;;11.90;6.00;;;15.80;40.30;;;;;;5057131;28;20528;-70
2022/03/28 03:53:21;;;;;;;13.63;6.05;;;15.80;40.60;;;;;;5056501;28;20072;-71
2022/03/28 03:55:48;;;;;;;13.07;6.28;;;15.80;40.60;;;;;;5056878;28;20029;-73
2022/03/28 03:58:14;;;;;;;13.93;6.63;;;15.70;40.40;;;;;;5056541;28;20174;-75
2022/03/28 04:00:40;;;;;;;15.35;6.43;;;15.70;40.60;;;;;;5056339;28;20509;-72
2022/03/28 04:03:06;;;;;;;13.05;6.50;;;15.60;40.50;;;;;;5038436;28;20110;-70
2022/03/28 04:05:32;;;;;;;17.20;6.32;;;15.60;40.40;;;;;;5056097;28;20049;-71
2022/03/28 04:07:59;;;;;;;18.67;6.85;;;15.70;41.00;;;;;;5056107;28;20025;-69
2022/03/28 04:10:26;;;;;;;11.60;6.47;;;15.60;40.70;;;;;;5055960;28;20104;-74
2022/03/28 04:12:52;;;;;;;13.75;6.25;;;15.70;40.70;;;;;;5055847;28;20033;-72
2022/03/28 04:15:18;;;;;;;16.27;6.93;;;15.70;40.70;;;;;;5055890;28;20079;-74
2022/03/28 04:17:45;;;;;;;11.63;6.25;;;15.70;40.80;;;;;;5055799;28;20029;-73
2022/03/28 04:20:15;;;;;;;13.38;6.38;;;15.70;40.60;;;;;;5055204;28;20060;-70
2022/03/28 04:22:45;;;;;;;13.00;6.60;;;15.70;40.00;;;;;;5053730;28;20033;-75
2022/03/28 04:25:13;;;;;;;12.05;6.95;;;15.70;40.00;;;;;;5055706;28;20023;-76
2022/03/28 04:27:40;;;;;;;12.63;6.30;;;15.70;41.20;;;;;;5055704;28;20029;-70
2022/03/28 04:30:08;;;;;;;15.05;7.35;;;15.80;41.20;;;;;;5055641;28;20119;-77
2022/03/28 04:32:54;;;;;;;19.50;8.27;;;15.80;40.60;;;;;;5055477;28;20033;-74
2022/03/28 04:35:20;;;;;;;19.42;8.95;;;15.80;41.10;;;;;;5054547;28;20044;-75
2022/03/28 04:37:46;;;;;;;19.85;7.28;;;15.90;41.30;;;;;;5038609;28;20025;-76
2022/03/28 04:40:15;;;;;;;25.83;8.27;;;15.90;41.40;;;;;;5055778;28;20112;-76
2022/03/28 04:42:43;;;;;;;17.27;6.88;;;15.90;41.70;;;;;;5055404;28;20025;-75
2022/03/28 04:45:09;;;;;;;18.67;7.20;;;15.90;41.80;;;;;;5055315;28;20448;-75
2022/03/28 04:47:35;;;;;;;17.98;7.32;;;15.90;41.50;;;;;;5055322;28;20041;-74
2022/03/28 04:50:02;;;;;;;22.90;8.50;;;15.80;41.70;;;;;;5053941;28;20029;-75
2022/03/28 04:52:28;;;;;;;19.80;7.95;;;15.80;41.60;;;;;;5037121;28;20021;-75
2022/03/28 04:54:54;;;;;;;17.00;8.50;;;15.80;41.90;;;;;;5054967;28;20385;-72
2022/03/28 04:57:20;;;;;;;16.17;8.02;;;15.80;42.10;;;;;;5037089;28;20025;-71
2022/03/28 04:59:45;;;;;;;21.70;8.40;;;15.80;42.40;;;;;;5054646;28;20102;-77
2022/03/28 05:02:13;;;;;;;15.13;7.97;;;15.80;42.40;;;;;;5054563;28;20029;-73
2022/03/28 05:04:39;;;;;;;19.23;7.93;;;15.80;41.40;;;;;;5054756;28;20466;-71
2022/03/28 05:07:06;;;;;;;20.33;8.68;;;15.70;42.50;;;;;;5054816;28;20025;-76
2022/03/28 05:09:32;;;;;;;18.90;7.80;;;15.70;42.60;;;;;;5054839;28;20025;-74
2022/03/28 05:11:58;;;;;;;18.15;8.02;;;15.70;42.70;;;;;;5054769;28;20032;-71
2022/03/28 05:14:24;;;;;;;15.65;7.13;;;15.70;43.30;;;;;;5054436;28;20090;-74
2022/03/28 05:16:51;;;;;;;20.17;8.68;;;15.70;43.20;;;;;;5055539;28;20426;-75
2022/03/28 05:19:17;;;;;;;18.52;8.32;;;15.70;42.30;;;;;;5055048;28;20078;-71
2022/03/28 05:21:43;;;;;;;15.93;7.97;;;15.70;43.90;;;;;;5039961;28;20033;-76
2022/03/28 05:24:09;;;;;;;22.48;10.27;;;15.60;44.50;;;;;;4994753;28;20029;-74
2022/03/28 05:26:34;;;;;;;18.30;9.52;;;15.60;45.40;;;;;;4997133;28;20026;-69
2022/03/28 05:29:00;;;;;;;27.42;9.70;;;15.70;46.00;;;;;;5014817;28;20038;-69
2022/03/28 05:31:26;;;;;;;28.02;9.93;;;15.70;45.70;;;;;;5014707;28;20025;-70
2022/03/28 05:33:52;;;;;;;37.35;9.77;;;15.70;46.20;;;;;;5014639;28;20045;-68
2022/03/28 05:36:18;;;;;;;32.08;9.52;;;15.80;46.20;;;;;;5014687;28;20026;-69
2022/03/28 05:38:44;;;;;;;34.15;9.88;;;15.80;46.30;;;;;;4997065;28;20038;-70
2022/03/28 05:41:10;;;;;;;29.83;10.63;;;15.80;46.10;;;;;;5030301;28;20025;-68
2022/03/28 05:43:37;;;;;;;25.70;10.30;;;15.80;45.80;;;;;;5034162;28;20065;-67
2022/03/28 05:46:04;;;;;;;19.45;10.50;;;15.90;46.10;;;;;;5033948;28;20017;-68
2022/03/28 05:48:30;;;;;;;21.40;11.27;;;15.90;45.70;;;;;;5034371;28;20450;-70
2022/03/28 05:50:56;;;;;;;22.45;11.43;;;16.00;45.10;;;;;;5016672;28;20029;-71
2022/03/28 05:53:22;;;;;;;26.75;12.65;;;15.90;44.30;;;;;;5033935;28;20033;-71
2022/03/28 05:55:48;;;;;;;20.15;13.50;;;15.80;44.10;;;;;;5034227;28;20030;-71
2022/03/28 05:58:14;;;;;;;21.60;13.98;;;15.60;43.90;;;;;;5034227;28;20504;-71
2022/03/28 06:00:40;;;;;;;25.02;13.55;;;15.60;43.70;;;;;;5034410;28;20125;-70
2022/03/28 06:03:08;;;;;;;21.30;13.30;;;15.40;43.70;;;;;;5034207;28;20087;-68
2022/03/28 06:05:36;;;;;;;21.25;14.27;;;15.30;43.50;;;;;;5034254;28;20026;-75
2022/03/28 06:08:04;;;;;;;20.90;13.25;;;15.20;42.90;;;;;;5033278;28;20033;-70
2022/03/28 06:10:29;;;;;;;26.70;13.85;;;15.20;42.80;;;;;;5016113;28;20033;-71
2022/03/28 06:12:55;;;;;;;25.52;14.10;;;15.20;42.80;;;;;;5017312;28;20041;-68
2022/03/28 06:15:22;;;;;;;24.98;13.27;;;15.20;42.80;;;;;;5002787;28;20088;-72
2022/03/28 06:17:48;;;;;;;24.05;13.38;;;15.20;42.60;;;;;;5016548;28;20029;-70
2022/03/28 06:20:14;;;;;;;19.77;12.57;;;15.20;42.50;;;;;;5000419;28;20457;-72
2022/03/28 06:22:40;;;;;;;19.85;12.50;;;15.10;42.50;;;;;;5015388;28;20044;-72
2022/03/28 06:25:08;;;;;;;24.05;13.30;;;15.20;42.60;;;;;;4998714;28;20025;-71
2022/03/28 06:27:40;;;;;;;24.85;12.38;;;15.20;42.60;;;;;;5016812;28;20038;-70
2022/03/28 06:30:11;;;;;;;22.85;12.60;;;15.30;42.90;;;;;;5003120;28;20029;-72
2022/03/28 06:32:38;;;;;;;30.67;13.77;;;15.40;42.40;;;;;;5014100;28;21503;-74
2022/03/28 06:35:05;;;;;;;27.88;13.10;;;15.50;43.40;;;;;;4998715;28;20119;-71
2022/03/28 06:37:31;;;;;;;24.23;13.93;;;15.50;43.10;;;;;;5015991;28;20026;-70
2022/03/28 06:39:56;;;;;;;24.05;13.70;;;15.60;43.00;;;;;;5015086;28;20037;-71
2022/03/28 06:42:22;;;;;;;28.83;14.52;;;15.50;42.90;;;;;;5015800;28;20033;-70
2022/03/28 06:44:48;;;;;;;24.30;14.57;;;15.60;43.10;;;;;;5016666;28;20029;-71
2022/03/28 06:47:14;;;;;;;29.13;14.68;;;15.70;43.10;;;;;;5016218;28;20199;-71
2022/03/28 06:49:39;;;;;;;24.40;15.13;;;15.60;42.80;;;;;;5016484;28;20728;-72
2022/03/28 06:52:05;;;;;;;24.15;13.60;;;15.70;42.80;;;;;;5016526;28;20181;-71
2022/03/28 06:54:33;;;;;;;22.92;13.95;;;15.70;43.10;;;;;;5016354;28;20139;-71
2022/03/28 06:56:59;;;;;;;25.15;14.38;;;15.70;42.90;;;;;;5016876;28;20441;-72
2022/03/28 06:59:24;;;;;;;27.10;14.13;;;15.70;42.90;;;;;;5015958;28;20108;-70
2022/03/28 07:01:50;;;;;;;27.48;13.82;;;15.80;43.20;;;;;;5014772;28;20037;-73
2022/03/28 07:04:16;;;;;;;25.40;14.25;;;15.80;43.10;;;;;;5015822;28;20021;-72
2022/03/28 07:06:42;;;;;;;25.15;14.00;;;15.90;43.00;;;;;;5016303;28;20885;-75
2022/03/28 07:09:07;;;;;;;23.60;13.95;;;15.90;43.20;;;;;;5015744;28;20052;-73
2022/03/28 07:11:33;;;;;;;23.77;14.82;;;16.00;43.20;;;;;;5016205;28;20040;-71
2022/03/28 07:13:59;;;;;;;30.27;14.90;;;16.10;43.20;;;;;;5016127;28;21218;-74
2022/03/28 07:16:25;;;;;;;25.95;14.32;;;16.10;43.10;;;;;;5016466;28;20061;-73
2022/03/28 07:18:51;;;;;;;31.63;14.98;;;16.20;42.90;;;;;;5015543;28;20112;-72
2022/03/28 07:21:16;;;;;;;39.15;18.65;;;16.30;43.10;;;;;;5017614;28;20025;-70
2022/03/28 07:23:43;;;;;;;36.13;22.95;;;16.30;43.60;;;;;;5016712;28;20052;-72
2022/03/28 07:26:10;;;;;;;34.88;19.75;;;16.30;43.40;;;;;;5018670;28;20484;-71
2022/03/28 07:28:39;;;;;;;33.58;17.45;;;16.40;44.30;;;;;;5018152;28;20038;-72
2022/03/28 07:31:10;;;;;;;30.48;15.68;;;16.40;43.60;;;;;;5018048;28;20064;-72
2022/03/28 07:33:39;;;;;;;24.88;15.13;;;16.50;42.60;;;;;;5018780;28;20602;-72
2022/03/28 07:36:07;;;;;;;25.80;15.02;;;16.60;43.50;;;;;;5018327;28;20095;-71
2022/03/28 07:38:33;;;;;;;28.75;14.80;;;16.60;43.50;;;;;;5018545;28;20018;-74
2022/03/28 07:40:59;;;;;;;23.60;15.40;;;16.60;43.50;;;;;;5019326;28;20041;-73
2022/03/28 07:43:25;;;;;;;27.20;14.40;;;16.60;43.60;;;;;;5018320;28;20082;-72
2022/03/28 07:45:53;;;;;;;30.08;14.65;;;16.70;43.90;;;;;;5018278;28;20033;-76
2022/03/28 07:48:19;;;;;;;22.50;13.93;;;16.80;43.70;;;;;;5018342;28;20101;-72
2022/03/28 07:50:46;;;;;;;27.80;15.05;;;16.90;44.00;;;;;;5018379;28;20033;-72
2022/03/28 07:53:12;;;;;;;34.80;15.38;;;17.00;43.80;;;;;;5017900;28;20033;-74
2022/03/28 07:55:39;;;;;;;33.72;14.30;;;17.10;43.80;;;;;;5018194;28;20443;-73
2022/03/28 07:58:06;;;;;;;33.55;14.65;;;17.30;44.30;;;;;;5017803;28;20065;-74
2022/03/28 08:00:32;;;;;;;36.53;13.55;;;17.40;44.80;;;;;;5019027;28;20049;-74
2022/03/28 08:02:59;;;;;;;27.80;12.55;;;17.50;45.80;;;;;;4999217;28;20029;-70
2022/03/28 08:05:25;;;;;;;28.90;13.63;;;17.60;45.80;;;;;;5018520;28;20029;-71
2022/03/28 08:11:15;;;;;;;31.65;12.77;;;17.80;45.80;;;;;;5018584;28;20041;-71
2022/03/28 08:13:44;;;;;;;32.47;12.82;;;17.90;47.10;;;;;;5018410;28;20044;-70
2022/03/28 08:16:09;;;;;;;23.70;11.93;;;18.00;47.30;;;;;;5018175;28;20026;-75
2022/03/28 08:18:39;;;;;;;25.88;11.63;;;18.00;48.30;;;;;;5018191;28;20418;-73
2022/03/28 08:21:05;;;;;;;35.38;12.10;;;18.10;47.70;;;;;;5018119;28;20136;-72
2022/03/28 08:23:31;;;;;;;24.48;10.57;;;18.20;48.90;;;;;;5017895;28;20506;-72
2022/03/28 08:25:59;;;;;;;26.48;9.85;;;18.40;49.30;;;;;;5018398;28;20671;-70
2022/03/28 08:28:24;;;;;;;27.88;11.02;;;18.40;49.40;;;;;;5017768;28;20061;-72
2022/03/28 08:30:50;;;;;;;24.73;10.93;;;18.50;49.80;;;;;;4998602;28;20076;-71
2022/03/28 08:33:16;;;;;;;24.48;9.98;;;18.70;49.40;;;;;;5016968;28;20551;-70
2022/03/28 08:35:42;;;;;;;25.80;10.00;;;18.90;49.80;;;;;;5018671;28;20039;-69
2022/03/28 08:38:08;;;;;;;22.98;10.95;;;18.90;50.00;;;;;;5002203;28;20079;-69
2022/03/28 08:40:34;;;;;;;26.65;9.95;;;19.00;49.80;;;;;;5022217;28;20037;-71
2022/03/28 08:43:03;;;;;;;23.27;9.57;;;19.20;49.90;;;;;;5001601;28;20144;-70
2022/03/28 08:45:29;;;;;;;27.08;9.38;;;19.20;49.60;;;;;;5021097;28;20060;-70
2022/03/28 08:47:56;;;;;;;20.70;8.48;;;19.30;49.80;;;;;;5021417;28;20053;-70
2022/03/28 08:50:22;;;;;;;18.98;8.13;;;19.30;49.80;;;;;;5021304;28;20034;-70
2022/03/28 08:52:48;;;;;;;23.58;7.57;;;19.30;49.30;;;;;;5025555;28;20029;-70
2022/03/28 08:55:15;;;;;;;23.33;7.43;;;19.30;49.50;;;;;;5024464;28;20037;-70
2022/03/28 08:57:41;;;;;;;29.70;7.68;;;19.30;49.90;;;;;;5024767;28;20128;-70
2022/03/28 09:00:12;;;;;;;23.65;7.93;;;19.30;49.30;;;;;;5022617;28;20037;-70
2022/03/28 09:02:46;;;;;;;20.92;7.53;;;19.40;49.10;;;;;;5023855;28;20108;-70
2022/03/28 09:05:16;;;;;;;24.92;7.57;;;19.50;48.40;;;;;;5023290;28;20044;-70
2022/03/28 09:07:42;;;;;;;29.65;7.75;;;19.60;50.00;;;;;;5022543;28;20024;-70
2022/03/28 09:10:13;;;;;;;24.33;7.25;;;19.60;50.20;;;;;;5020859;28;20567;-72
2022/03/28 09:13:02;;;;;;;23.42;6.47;;;19.60;50.30;;;;;;5019075;28;20108;-70
2022/03/28 09:15:55;;;;;;;25.00;7.72;;;19.50;48.90;;;;;;5020681;28;20045;-72
2022/03/28 09:18:36;;;;;;;27.27;7.63;;;19.50;49.00;;;;;;5020302;28;20607;-71
2022/03/28 09:21:12;;;;;;;26.00;6.97;;;19.60;49.60;;;;;;5019981;28;20557;-73
2022/03/28 09:23:45;;;;;;;28.02;8.20;;;19.60;49.90;;;;;;4985156;28;21555;-73
2022/03/28 09:26:20;;;;;;;23.52;7.00;;;19.70;48.80;;;;;;5020448;28;20038;-72
2022/03/28 09:28:53;;;;;;;22.38;7.15;;;19.80;48.70;;;;;;5020682;28;20075;-72
2022/03/28 09:31:32;;;;;;;23.75;7.25;;;19.80;49.10;;;;;;5020086;28;20485;-70
2022/03/28 09:34:06;;;;;;;30.02;8.00;;;19.90;48.70;;;;;;5021470;28;20038;-71
2022/03/28 09:36:40;;;;;;;;;;;20.00;49.50;;;;;;5017594;28;20565;-71
2022/03/28 09:39:09;;;;;;;23.50;7.95;;;20.10;48.70;;;;;;5020349;28;19948;-70
2022/03/28 09:41:35;;;;;;;24.02;8.10;;;20.10;48.50;;;;;;5020598;28;20037;-71
2022/03/28 09:44:01;;;;;;;27.25;7.70;;;20.20;47.90;;;;;;5020232;28;20033;-72
2022/03/28 09:46:30;;;;;;;24.95;7.28;;;20.20;47.60;;;;;;5019862;28;20084;-72
2022/03/28 09:49:15;;;;;;;25.48;8.23;;;20.20;48.00;;;;;;5020034;28;20033;-71
2022/03/28 09:51:40;;;;;;;25.45;7.85;;;20.30;46.70;;;;;;5020284;28;20038;-73
2022/03/28 09:54:24;;;;;;;20.70;7.20;;;20.20;48.00;;;;;;5020557;28;20567;-71
2022/03/28 09:57:09;;;;;;;22.05;6.95;;;20.30;48.00;;;;;;5020379;28;20034;-72
2022/03/28 09:59:40;;;;;;;20.77;7.28;;;20.40;46.60;;;;;;5020282;28;20084;-71
2022/03/28 10:02:17;;;;;;;24.92;7.60;;;20.40;46.90;;;;;;5019588;28;20588;-72
2022/03/28 10:04:45;;;;;;;22.80;6.85;;;20.40;46.80;;;;;;5019540;28;20482;-73
2022/03/28 10:07:11;;;;;;;19.70;7.18;;;20.50;46.70;;;;;;5000421;28;20036;-70
2022/03/28 10:09:39;;;;;;;18.00;7.00;;;20.60;46.20;;;;;;5019347;28;20042;-70
2022/03/28 10:12:07;;;;;;;24.38;7.35;;;20.50;45.80;;;;;;5019298;28;20026;-71
2022/03/28 10:14:33;;;;;;;18.52;6.57;;;20.40;46.40;;;;;;5019471;28;20057;-72
2022/03/28 10:17:02;;;;;;;20.23;7.40;;;20.40;45.80;;;;;;5018830;28;20040;-72
2022/03/28 10:19:30;;;;;;;20.65;7.78;;;20.20;45.10;;;;;;5018888;28;20036;-71
2022/03/28 10:21:57;;;;;;;20.08;8.38;;;20.30;44.80;;;;;;5018760;28;20034;-71
2022/03/28 10:24:25;;;;;;;20.10;7.65;;;20.40;44.30;;;;;;5020744;28;20036;-71
2022/03/28 10:26:55;;;;;;;22.73;7.13;;;20.50;44.80;;;;;;5021457;28;20064;-71
2022/03/28 10:29:22;;;;;;;17.92;6.50;;;20.60;45.60;;;;;;5021651;28;20904;-71
2022/03/28 10:31:58;;;;;;;29.00;7.53;;;20.60;45.60;;;;;;5021399;28;20029;-71
2022/03/28 10:34:53;;;;;;;17.45;6.35;;;20.60;45.40;;;;;;5019511;28;20069;-72
2022/03/28 10:37:39;;;;;;;21.27;6.82;;;20.40;45.40;;;;;;5020793;28;20128;-70
2022/03/28 10:40:31;;;;;;;20.85;7.25;;;20.30;45.50;;;;;;5020985;28;20406;-72
2022/03/28 10:43:08;;;;;;;27.38;7.90;;;20.30;45.30;;;;;;5020739;28;20044;-71
2022/03/28 10:45:46;;;;;;;24.75;8.02;;;20.50;46.00;;;;;;5020402;28;20029;-72
2022/03/28 10:48:12;;;;;;;20.60;6.85;;;20.70;45.40;;;;;;5019615;28;20439;-71
2022/03/28 10:50:48;;;;;;;23.23;7.30;;;20.80;44.70;;;;;;5018744;28;20033;-71
2022/03/28 10:53:26;;;;;;;22.48;7.05;;;20.90;44.40;;;;;;5018067;28;20155;-71
2022/03/28 10:56:05;;;;;;;18.27;6.65;;;20.90;43.70;;;;;;5018002;28;20050;-72
2022/03/28 10:58:40;;;;;;;18.33;5.82;;;21.00;43.40;;;;;;5016717;28;20034;-70
2022/03/28 11:01:11;;;;;;;13.52;5.93;;;21.10;43.30;;;;;;4999289;28;20143;-71
2022/03/28 11:04:03;;;;;;;22.58;7.10;;;21.30;43.30;;;;;;5019296;28;20744;-71
2022/03/28 11:07:12;;;;;;;20.63;7.00;;;21.40;42.90;;;;;;5018869;28;20554;-70
2022/03/28 11:09:41;;;;;;;28.20;6.45;;;21.50;42.80;;;;;;5018173;28;20714;-69
2022/03/28 11:12:29;;;;;;;17.83;6.35;;;21.50;42.60;;;;;;5018412;28;20042;-70
2022/03/28 11:14:58;;;;;;;15.50;5.78;;;21.50;42.20;;;;;;5018012;28;21219;-72
2022/03/28 11:17:27;;;;;;;18.63;6.32;;;21.50;42.20;;;;;;5018089;28;20033;-71
2022/03/28 11:20:11;;;;;;;16.30;6.45;;;21.40;42.10;;;;;;5017479;28;20450;-72
2022/03/28 11:22:44;;;;;;;23.02;6.90;;;21.50;41.50;;;;;;5018040;28;20064;-72
2022/03/28 11:25:29;;;;;;;17.08;6.32;;;21.70;42.00;;;;;;5018248;28;20033;-73
2022/03/28 11:28:21;;;;;;;18.92;6.72;;;21.80;41.90;;;;;;5018006;28;20057;-71
2022/03/28 11:31:02;;;;;;;17.90;6.38;;;21.60;41.20;;;;;;5014282;28;20056;-71
2022/03/28 11:33:32;;;;;;;17.67;5.88;;;21.50;40.90;;;;;;5018057;28;20105;-74
2022/03/28 11:36:08;;;;;;;15.02;5.97;;;21.30;40.70;;;;;;5017514;28;20067;-71
2022/03/28 11:38:44;;;;;;;18.65;5.88;;;21.30;40.90;;;;;;5018940;28;20092;-72
2022/03/28 11:41:14;;;;;;;16.65;5.72;;;21.30;40.80;;;;;;5018814;28;20037;-71
2022/03/28 11:43:41;;;;;;;16.38;5.75;;;21.20;40.90;;;;;;5018524;28;20506;-72
2022/03/28 11:46:22;;;;;;;18.75;5.75;;;21.20;41.00;;;;;;5018190;28;20033;-72
2022/03/28 11:49:09;;;;;;;15.80;5.30;;;21.20;40.90;;;;;;5017627;28;20040;-72
2022/03/28 11:51:37;;;;;;;22.65;5.78;;;21.10;41.20;;;;;;5018634;28;20029;-73
2022/03/28 11:54:08;;;;;;;14.73;5.18;;;21.20;41.00;;;;;;5018378;28;20079;-75
2022/03/28 11:58:14;;;;;;;15.90;5.68;;;21.30;41.10;;;;;;5018555;28;20870;-75
2022/03/28 11:59:23;;;;;;;16.77;6.05;;;21.30;40.60;;;;;;5017768;28;20034;-72
2022/03/28 12:02:00;;;;;;;14.18;5.43;;;21.30;40.60;;;;;;5017754;28;20401;-74
2022/03/28 12:04:27;;;;;;;15.00;5.60;;;21.20;40.40;;;;;;5017028;28;20497;-71
2022/03/28 12:07:02;;;;;;;13.93;5.43;;;21.20;40.20;;;;;;5018133;28;20048;-72
2022/03/28 12:09:27;;;;;;;14.05;6.10;;;21.20;40.30;;;;;;5000874;28;20394;-72
2022/03/28 12:11:55;;;;;;;13.93;5.90;;;21.30;40.60;;;;;;5022567;28;20030;-73
2022/03/28 12:14:22;;;;;;;18.63;6.05;;;21.30;40.50;;;;;;5022255;28;20037;-73
2022/03/28 12:16:57;;;;;;;18.83;7.10;;;21.30;40.40;;;;;;5022356;28;20041;-72
2022/03/28 12:19:24;;;;;;;18.35;6.32;;;21.40;40.40;;;;;;5021512;28;20135;-74
2022/03/28 12:21:52;;;;;;;19.75;6.95;;;21.40;40.30;;;;;;5021428;28;20116;-71
2022/03/28 12:24:22;;;;;;;12.75;6.40;;;21.40;40.30;;;;;;5020508;28;20084;-73
2022/03/28 12:26:54;;;;;;;16.25;6.95;;;21.40;40.70;;;;;;5021688;28;20033;-72
2022/03/28 12:29:20;;;;;;;20.40;7.10;;;21.40;40.30;;;;;;5021683;28;20682;-73
2022/03/28 12:31:48;;;;;;;19.95;6.68;;;21.50;40.40;;;;;;5021770;28;20033;-72
2022/03/28 12:34:17;;;;;;;16.80;6.40;;;21.50;39.60;;;;;;5021860;28;20038;-72
2022/03/28 12:36:43;;;;;;;13.98;5.05;;;21.50;39.90;;;;;;5021626;28;20520;-72
2022/03/28 12:39:10;;;;;;;16.45;5.70;;;21.60;39.40;;;;;;5021623;28;20026;-72
2022/03/28 12:41:53;;;;;;;15.18;5.20;;;21.70;39.80;;;;;;5021990;28;20397;-71
2022/03/28 12:44:23;;;;;;;15.45;5.95;;;21.80;39.40;;;;;;5022180;28;20052;-73
2022/03/28 12:46:49;;;;;;;13.73;6.10;;;21.90;39.30;;;;;;5002283;28;20053;-72
2022/03/28 12:49:19;;;;;;;20.33;6.28;;;22.00;39.10;;;;;;5020975;28;20088;-73